Time;durP1;ratioP1;P1;durP2;ratioP2;P2;SDS_P1;SDS_P2;PMS_P1;PMS_P2;Temp;Humidity;BMP_temperature;BMP_pressure;BME280_temperature;BME280_humidity;BME280_pressure;Samples;Min_cycle;Max_cycle;Signal;HPM_P1;HPM_P2
2023/05/19 00:01:31;;;;;;;20.10;6.38;;;;;;;;;;4987207;28;20034;-76
2023/05/19 00:04:00;;;;;;;16.70;6.75;;;;;;;;;;4988956;28;20049;-77
2023/05/19 00:06:28;;;;;;;22.13;7.13;;;;;;;;;;4989179;28;20029;-76
2023/05/19 00:09:03;;;;;;;18.27;7.40;;;;;;;;;;4988200;28;20139;-77
2023/05/19 00:11:28;;;;;;;16.67;7.38;;;;;;;;;;4988987;28;20030;-77
2023/05/19 00:13:54;;;;;;;15.98;6.60;;;;;;;;;;4985874;28;20048;-76
2023/05/19 00:16:23;;;;;;;20.20;7.45;;;;;;;;;;5009762;28;20033;-77
2023/05/19 00:18:48;;;;;;;14.55;7.15;;;;;;;;;;5040620;28;20037;-77
2023/05/19 00:21:14;;;;;;;15.57;7.07;;;;;;;;;;5006645;28;20088;-76
2023/05/19 00:23:39;;;;;;;16.08;7.22;;;;;;;;;;5007793;28;20082;-76
2023/05/19 00:26:05;;;;;;;19.38;7.45;;;;;;;;;;5039678;28;20030;-76
2023/05/19 00:28:32;;;;;;;17.88;7.70;;;;;;;;;;5031398;28;20026;-76
2023/05/19 00:30:58;;;;;;;15.52;6.82;;;;;;;;;;5038791;28;20723;-76
2023/05/19 00:33:23;;;;;;;16.45;7.35;;;;;;;;;;5008367;28;20029;-76
2023/05/19 00:35:51;;;;;;;21.67;7.78;;;;;;;;;;5035528;28;20084;-76
2023/05/19 00:38:16;;;;;;;17.85;7.80;;;;;;;;;;5008966;28;20018;-77
2023/05/19 00:40:41;;;;;;;17.73;7.82;;;;;;;;;;5005438;28;20551;-77
2023/05/19 00:43:07;;;;;;;21.92;8.10;;;;;;;;;;5013481;28;20045;-76
2023/05/19 00:45:33;;;;;;;19.00;8.30;;;;;;;;;;5005726;28;20065;-76
2023/05/19 00:47:58;;;;;;;18.90;7.93;;;;;;;;;;5038224;28;20060;-75
2023/05/19 00:50:23;;;;;;;15.45;7.50;;;;;;;;;;5037796;28;20119;-77
2023/05/19 00:52:50;;;;;;;17.50;7.88;;;;;;;;;;5009663;28;20768;-77
2023/05/19 00:55:20;;;;;;;20.08;8.15;;;;;;;;;;5043166;28;20048;-78
2023/05/19 00:57:45;;;;;;;18.10;8.02;;;;;;;;;;5011021;28;20137;-76
2023/05/19 01:00:12;;;;;;;22.52;8.32;;;;;;;;;;5047026;28;20034;-77
2023/05/19 01:02:40;;;;;;;17.90;8.25;;;;;;;;;;5009854;28;20417;-75
2023/05/19 01:05:05;;;;;;;18.17;8.57;;;;;;;;;;5011967;28;20156;-77
2023/05/19 01:07:31;;;;;;;18.98;8.82;;;;;;;;;;5015533;28;20767;-76
2023/05/19 01:09:56;;;;;;;22.25;8.55;;;;;;;;;;5043222;28;20029;-77
2023/05/19 01:12:22;;;;;;;20.50;8.45;;;;;;;;;;5040183;28;20747;-76
2023/05/19 01:14:47;;;;;;;23.95;9.07;;;;;;;;;;5011891;28;20587;-76
2023/05/19 01:17:21;;;;;;;14.25;8.30;;;;;;;;;;5042035;28;20034;-76
2023/05/19 01:19:56;;;;;;;18.23;8.65;;;;;;;;;;5022984;28;20124;-76
2023/05/19 01:22:33;;;;;;;19.10;9.10;;;;;;;;;;5019870;28;20392;-77
2023/05/19 01:25:11;;;;;;;21.77;8.88;;;;;;;;;;5023480;28;20030;-76
2023/05/19 01:27:57;;;;;;;21.90;8.98;;;;;;;;;;5024075;28;20042;-77
2023/05/19 01:30:41;;;;;;;23.85;8.63;;;;;;;;;;5010614;28;20048;-77
2023/05/19 01:33:11;;;;;;;26.35;9.20;;;;;;;;;;4990321;28;20038;-77
2023/05/19 01:35:37;;;;;;;20.92;9.35;;;;;;;;;;4990815;28;20042;-77
2023/05/19 01:38:04;;;;;;;18.17;8.90;;;;;;;;;;4992807;28;20034;-77
2023/05/19 01:40:32;;;;;;;15.15;8.95;;;;;;;;;;4991215;28;20100;-77
2023/05/19 01:42:58;;;;;;;22.88;10.02;;;;;;;;;;5019263;28;20114;-76
2023/05/19 01:45:24;;;;;;;20.77;9.43;;;;;;;;;;5010818;28;20100;-77
2023/05/19 01:47:52;;;;;;;19.42;9.23;;;;;;;;;;4997920;28;20810;-77
2023/05/19 01:50:20;;;;;;;24.55;9.50;;;;;;;;;;5023178;28;20042;-77
2023/05/19 01:52:45;;;;;;;22.70;9.95;;;;;;;;;;5017014;28;20052;-77
2023/05/19 01:55:10;;;;;;;20.33;9.80;;;;;;;;;;5011202;28;20087;-77
2023/05/19 01:57:46;;;;;;;23.75;9.15;;;;;;;;;;5012283;28;20160;-77
2023/05/19 02:00:14;;;;;;;22.27;10.35;;;;;;;;;;5043167;28;20034;-78
2023/05/19 02:02:49;;;;;;;24.30;10.43;;;;;;;;;;5010053;28;20045;-77
2023/05/19 02:05:33;;;;;;;16.65;9.13;;;;;;;;;;5010416;28;20109;-78
2023/05/19 02:08:13;;;;;;;22.40;9.82;;;;;;;;;;5043627;28;20072;-78
2023/05/19 02:10:40;;;;;;;19.35;9.88;;;;;;;;;;5010359;28;20038;-79
2023/05/19 02:13:05;;;;;;;20.15;10.32;;;;;;;;;;5014404;28;20132;-77
2023/05/19 02:15:39;;;;;;;18.90;9.55;;;;;;;;;;5039558;28;20053;-78
2023/05/19 02:18:05;;;;;;;23.17;9.98;;;;;;;;;;5008307;28;20041;-78
2023/05/19 02:20:30;;;;;;;20.20;10.77;;;;;;;;;;5011803;28;20088;-78
2023/05/19 02:22:55;;;;;;;19.55;9.73;;;;;;;;;;5010877;28;20073;-78
2023/05/19 02:25:23;;;;;;;22.88;10.05;;;;;;;;;;5041206;28;20042;-78
2023/05/19 02:27:49;;;;;;;18.95;10.02;;;;;;;;;;5042871;28;20071;-78
2023/05/19 02:30:17;;;;;;;22.42;10.40;;;;;;;;;;5008100;28;20168;-78
2023/05/19 02:32:45;;;;;;;20.30;10.43;;;;;;;;;;5040249;28;20042;-78
2023/05/19 02:35:13;;;;;;;24.25;10.90;;;;;;;;;;5009708;28;20126;-77
2023/05/19 02:37:38;;;;;;;23.20;10.63;;;;;;;;;;5010177;28;20408;-77
2023/05/19 02:40:04;;;;;;;25.40;10.02;;;;;;;;;;5039313;28;20079;-77
2023/05/19 02:42:30;;;;;;;26.42;11.50;;;;;;;;;;5039027;28;20087;-78
2023/05/19 02:44:58;;;;;;;23.90;10.63;;;;;;;;;;5008849;28;20051;-79
2023/05/19 02:47:23;;;;;;;21.50;11.18;;;;;;;;;;5006956;28;20044;-77
2023/05/19 02:49:49;;;;;;;25.30;10.25;;;;;;;;;;5007082;28;20046;-77
2023/05/19 02:52:14;;;;;;;26.38;10.40;;;;;;;;;;5041448;28;20930;-75
2023/05/19 02:54:42;;;;;;;23.40;10.88;;;;;;;;;;5008420;28;20063;-76
2023/05/19 02:57:10;;;;;;;21.85;10.38;;;;;;;;;;5008195;28;20033;-76
2023/05/19 02:59:35;;;;;;;28.40;11.82;;;;;;;;;;5006126;28;20103;-77
2023/05/19 03:02:01;;;;;;;23.85;11.43;;;;;;;;;;5038378;28;20037;-76
2023/05/19 03:04:29;;;;;;;25.52;11.07;;;;;;;;;;5005151;28;20041;-77
2023/05/19 03:06:54;;;;;;;20.48;11.00;;;;;;;;;;5017063;28;20038;-78
2023/05/19 03:09:20;;;;;;;25.83;11.38;;;;;;;;;;5011690;28;20219;-77
2023/05/19 03:11:45;;;;;;;24.42;11.00;;;;;;;;;;5010989;28;20398;-77
2023/05/19 03:14:13;;;;;;;26.30;11.55;;;;;;;;;;5037503;28;20790;-76
2023/05/19 03:16:41;;;;;;;23.40;11.43;;;;;;;;;;5007275;28;20056;-77
2023/05/19 03:19:06;;;;;;;22.92;11.20;;;;;;;;;;5005227;28;20996;-77
2023/05/19 03:21:33;;;;;;;29.83;11.43;;;;;;;;;;5007371;28;20569;-79
2023/05/19 03:24:01;;;;;;;23.90;11.63;;;;;;;;;;5038364;28;20060;-79
2023/05/19 03:26:28;;;;;;;21.73;10.80;;;;;;;;;;5039378;28;20498;-80
2023/05/19 03:28:53;;;;;;;23.20;10.82;;;;;;;;;;5035977;28;20796;-77
2023/05/19 03:31:18;;;;;;;27.20;12.07;;;;;;;;;;5004774;28;20033;-77
2023/05/19 03:33:43;;;;;;;27.90;12.57;;;;;;;;;;5038853;28;20034;-77
2023/05/19 03:36:09;;;;;;;26.85;12.57;;;;;;;;;;5006720;28;20624;-77
2023/05/19 03:38:36;;;;;;;22.45;12.07;;;;;;;;;;5006176;28;20118;-77
2023/05/19 03:41:02;;;;;;;22.95;12.05;;;;;;;;;;5006162;28;20033;-78
2023/05/19 03:43:27;;;;;;;24.50;12.52;;;;;;;;;;5010140;28;20044;-77
2023/05/19 03:45:52;;;;;;;26.80;12.20;;;;;;;;;;5026676;28;20052;-77
2023/05/19 03:48:18;;;;;;;23.10;11.82;;;;;;;;;;5038046;28;20052;-78
2023/05/19 03:50:43;;;;;;;24.63;12.23;;;;;;;;;;5004938;28;20034;-77
2023/05/19 03:53:08;;;;;;;26.13;11.85;;;;;;;;;;5008020;28;20044;-79
2023/05/19 03:55:36;;;;;;;31.63;11.90;;;;;;;;;;5007407;28;20088;-79
2023/05/19 03:58:06;;;;;;;22.65;11.52;;;;;;;;;;5038427;28;20040;-79
2023/05/19 04:00:31;;;;;;;21.38;11.55;;;;;;;;;;5007128;28;20037;-77
2023/05/19 04:02:59;;;;;;;28.58;12.48;;;;;;;;;;5007785;28;20038;-78
2023/05/19 04:05:24;;;;;;;28.73;12.13;;;;;;;;;;5006567;28;20076;-79
2023/05/19 04:07:52;;;;;;;28.50;12.50;;;;;;;;;;5005631;28;20041;-78
2023/05/19 04:10:17;;;;;;;23.63;12.15;;;;;;;;;;5005418;28;20434;-78
2023/05/19 04:12:43;;;;;;;23.98;12.27;;;;;;;;;;5005799;28;20045;-78
2023/05/19 04:15:10;;;;;;;29.25;12.30;;;;;;;;;;5031759;28;21890;-77
2023/05/19 04:17:36;;;;;;;30.05;12.10;;;;;;;;;;5006430;28;20094;-75
2023/05/19 04:20:01;;;;;;;23.55;12.25;;;;;;;;;;5006279;28;20060;-79
2023/05/19 04:22:27;;;;;;;25.63;12.15;;;;;;;;;;5039445;28;20521;-79
2023/05/19 04:24:52;;;;;;;26.95;11.60;;;;;;;;;;5039776;28;20073;-79
2023/05/19 04:27:17;;;;;;;24.55;11.82;;;;;;;;;;5011314;28;20041;-80
2023/05/19 04:29:47;;;;;;;34.13;12.88;;;;;;;;;;5006363;28;20047;-78
2023/05/19 04:32:16;;;;;;;29.50;12.32;;;;;;;;;;5005495;28;20193;-80
2023/05/19 04:34:44;;;;;;;28.05;12.07;;;;;;;;;;5007475;28;20138;-79
2023/05/19 04:37:15;;;;;;;24.08;11.77;;;;;;;;;;5010636;28;20033;-79
2023/05/19 04:39:45;;;;;;;26.65;11.93;;;;;;;;;;5008598;28;20156;-79
2023/05/19 04:42:12;;;;;;;21.65;11.18;;;;;;;;;;5008640;28;20495;-79
2023/05/19 04:44:40;;;;;;;24.45;11.75;;;;;;;;;;5006422;28;20076;-78
2023/05/19 04:47:07;;;;;;;22.58;11.68;;;;;;;;;;5009566;28;20041;-79
2023/05/19 04:49:37;;;;;;;21.98;11.98;;;;;;;;;;5009973;28;20072;-78
2023/05/19 04:52:05;;;;;;;28.00;11.70;;;;;;;;;;5004102;28;22397;-78
2023/05/19 04:54:31;;;;;;;23.10;11.23;;;;;;;;;;5005005;28;20553;-78
2023/05/19 04:56:56;;;;;;;20.77;10.50;;;;;;;;;;5013616;28;20237;-78
2023/05/19 04:59:23;;;;;;;23.83;10.82;;;;;;;;;;5003995;28;20075;-79
2023/05/19 05:01:49;;;;;;;25.67;11.45;;;;;;;;;;5004468;28;20037;-78
2023/05/19 05:04:14;;;;;;;28.30;12.48;;;;;;;;;;5003004;28;20147;-79
2023/05/19 05:06:46;;;;;;;24.02;11.38;;;;;;;;;;5036687;28;20513;-78
2023/05/19 05:09:14;;;;;;;;;;;;;;;;;;5006097;28;20048;-78
2023/05/19 05:11:41;;;;;;;22.02;9.82;;;;;;;;;;5006203;28;20386;-77
2023/05/19 05:14:07;;;;;;;21.05;10.10;;;;;;;;;;5003417;28;20072;-79
2023/05/19 05:16:35;;;;;;;22.58;10.18;;;;;;;;;;5017455;28;20033;-79
2023/05/19 05:19:00;;;;;;;19.77;9.60;;;;;;;;;;5037445;28;20053;-72
2023/05/19 05:21:28;;;;;;;17.83;8.88;;;;;;;;;;5004318;28;20073;-71
2023/05/19 05:23:54;;;;;;;16.35;9.23;;;;;;;;;;5036302;28;20555;-71
2023/05/19 05:26:23;;;;;;;17.02;8.43;;;;;;;;;;5036493;28;20064;-71
2023/05/19 05:28:48;;;;;;;14.88;8.07;;;;;;;;;;5004301;28;20042;-71
2023/05/19 05:31:16;;;;;;;16.13;8.05;;;;;;;;;;5003005;28;20037;-72
2023/05/19 05:33:41;;;;;;;18.45;7.30;;;;;;;;;;5004830;28;20111;-72
2023/05/19 05:36:09;;;;;;;17.92;7.55;;;;;;;;;;5004496;28;20977;-71
2023/05/19 05:38:34;;;;;;;14.07;6.53;;;;;;;;;;5037767;28;20755;-70
2023/05/19 05:41:01;;;;;;;15.90;6.88;;;;;;;;;;5009380;28;20029;-69
2023/05/19 05:43:27;;;;;;;13.57;6.50;;;;;;;;;;5008294;28;20076;-69
2023/05/19 05:45:52;;;;;;;16.15;7.28;;;;;;;;;;5009416;28;20037;-69
2023/05/19 05:48:17;;;;;;;17.08;6.95;;;;;;;;;;5007120;28;20030;-70
2023/05/19 05:50:45;;;;;;;14.43;6.35;;;;;;;;;;5006332;28;20520;-69
2023/05/19 05:53:16;;;;;;;15.15;6.28;;;;;;;;;;5041866;28;20033;-70
2023/05/19 05:55:42;;;;;;;14.70;6.72;;;;;;;;;;5008091;28;20059;-70
2023/05/19 05:58:09;;;;;;;16.30;6.00;;;;;;;;;;5040639;28;20037;-70
2023/05/19 06:00:35;;;;;;;16.58;6.60;;;;;;;;;;5011337;28;20041;-70
2023/05/19 06:03:01;;;;;;;14.77;6.63;;;;;;;;;;5014398;28;20037;-69
2023/05/19 06:05:27;;;;;;;18.17;6.53;;;;;;;;;;5010020;28;20040;-69
2023/05/19 06:07:52;;;;;;;15.80;6.95;;;;;;;;;;5029596;28;20041;-69
2023/05/19 06:10:17;;;;;;;14.73;6.50;;;;;;;;;;5017759;28;20029;-70
2023/05/19 06:12:42;;;;;;;14.50;6.60;;;;;;;;;;5005626;28;20495;-71
2023/05/19 06:15:08;;;;;;;14.75;6.40;;;;;;;;;;5006556;28;20051;-69
2023/05/19 06:17:34;;;;;;;15.07;6.38;;;;;;;;;;5036511;28;20052;-70
2023/05/19 06:20:00;;;;;;;13.02;6.00;;;;;;;;;;5007257;28;20055;-71
2023/05/19 06:22:27;;;;;;;13.90;5.82;;;;;;;;;;5008481;28;20140;-70
2023/05/19 06:24:52;;;;;;;14.63;6.65;;;;;;;;;;5013748;28;20133;-70
2023/05/19 06:27:17;;;;;;;13.25;5.93;;;;;;;;;;5008968;28;20041;-70
2023/05/19 06:29:42;;;;;;;12.95;5.40;;;;;;;;;;5010128;28;20037;-71
2023/05/19 06:32:08;;;;;;;13.05;6.10;;;;;;;;;;5009392;28;20052;-69
2023/05/19 06:34:37;;;;;;;15.30;6.15;;;;;;;;;;5038415;28;20048;-68
2023/05/19 06:37:02;;;;;;;15.10;5.78;;;;;;;;;;5013733;28;20033;-69
2023/05/19 06:39:29;;;;;;;12.20;5.95;;;;;;;;;;5009769;28;22290;-67
2023/05/19 06:41:57;;;;;;;16.75;6.90;;;;;;;;;;5007502;28;20038;-69
2023/05/19 06:44:23;;;;;;;15.25;5.68;;;;;;;;;;5007797;28;20132;-69
2023/05/19 06:46:48;;;;;;;12.18;5.82;;;;;;;;;;5012696;28;20050;-69
2023/05/19 06:49:14;;;;;;;12.98;5.90;;;;;;;;;;5042598;28;20044;-73
2023/05/19 06:51:40;;;;;;;11.82;5.47;;;;;;;;;;5022261;28;20037;-73
2023/05/19 06:54:05;;;;;;;14.05;5.88;;;;;;;;;;5007975;28;20132;-73
2023/05/19 06:56:30;;;;;;;13.73;5.45;;;;;;;;;;5008601;28;20747;-73
2023/05/19 06:58:56;;;;;;;13.27;5.45;;;;;;;;;;5010004;28;20049;-72
2023/05/19 07:01:25;;;;;;;11.02;5.35;;;;;;;;;;5007741;28;20394;-72
2023/05/19 07:03:50;;;;;;;11.07;5.18;;;;;;;;;;5012347;28;20490;-73
2023/05/19 07:06:15;;;;;;;16.38;5.13;;;;;;;;;;5007807;28;20033;-73
2023/05/19 07:08:43;;;;;;;11.02;5.32;;;;;;;;;;5040069;28;20034;-72
2023/05/19 07:11:08;;;;;;;13.00;4.93;;;;;;;;;;5009568;28;20038;-73
2023/05/19 07:13:34;;;;;;;11.25;5.00;;;;;;;;;;5039458;28;20036;-68
2023/05/19 07:15:59;;;;;;;16.73;5.55;;;;;;;;;;5038128;28;22296;-72
2023/05/19 07:18:30;;;;;;;11.68;4.97;;;;;;;;;;5010046;28;20054;-72
2023/05/19 07:20:56;;;;;;;10.35;4.70;;;;;;;;;;5039983;28;20029;-72
2023/05/19 07:23:23;;;;;;;14.43;5.43;;;;;;;;;;5008147;28;20142;-72
2023/05/19 07:25:51;;;;;;;11.63;4.72;;;;;;;;;;5006815;28;20653;-72
2023/05/19 07:28:19;;;;;;;10.15;4.80;;;;;;;;;;5008320;28;20041;-72
2023/05/19 07:30:44;;;;;;;14.27;5.10;;;;;;;;;;5008515;28;20037;-72
2023/05/19 07:33:09;;;;;;;12.90;5.00;;;;;;;;;;5009010;28;20048;-72
2023/05/19 07:35:35;;;;;;;9.80;4.75;;;;;;;;;;5009447;28;20057;-72
2023/05/19 07:38:03;;;;;;;14.10;4.70;;;;;;;;;;5007663;28;20040;-71
2023/05/19 07:40:28;;;;;;;11.20;4.53;;;;;;;;;;5009672;28;20029;-72
2023/05/19 07:42:53;;;;;;;12.93;4.93;;;;;;;;;;5007509;28;20119;-72
2023/05/19 07:45:21;;;;;;;9.30;4.38;;;;;;;;;;5012620;28;20073;-72
2023/05/19 07:47:46;;;;;;;16.60;5.30;;;;;;;;;;5008090;28;20038;-72
2023/05/19 07:50:11;;;;;;;11.15;4.30;;;;;;;;;;5009975;28;20048;-72
2023/05/19 07:52:37;;;;;;;10.70;4.47;;;;;;;;;;5007218;28;20048;-73
2023/05/19 07:55:02;;;;;;;9.65;4.32;;;;;;;;;;5009672;28;20052;-73
2023/05/19 07:57:27;;;;;;;10.45;5.22;;;;;;;;;;5010762;28;20126;-73
2023/05/19 07:59:53;;;;;;;13.10;5.18;;;;;;;;;;5009040;28;20033;-74
2023/05/19 08:02:18;;;;;;;12.00;5.35;;;;;;;;;;5009367;28;20036;-72
2023/05/19 08:04:43;;;;;;;9.50;5.03;;;;;;;;;;5040572;28;20107;-73
2023/05/19 08:07:08;;;;;;;11.80;5.18;;;;;;;;;;5008650;28;20033;-73
2023/05/19 08:09:34;;;;;;;11.05;5.15;;;;;;;;;;5011859;28;20126;-73
2023/05/19 08:12:03;;;;;;;15.43;5.68;;;;;;;;;;5009045;28;20052;-73
2023/05/19 08:14:30;;;;;;;12.73;5.25;;;;;;;;;;5008543;28;20041;-73
2023/05/19 08:16:55;;;;;;;14.32;5.20;;;;;;;;;;5007826;28;21159;-73
2023/05/19 08:19:20;;;;;;;10.45;4.88;;;;;;;;;;5008357;28;20033;-73
2023/05/19 08:21:48;;;;;;;11.25;4.72;;;;;;;;;;5037181;28;20095;-73
2023/05/19 08:24:14;;;;;;;10.55;4.53;;;;;;;;;;5010361;28;20609;-75
2023/05/19 08:26:41;;;;;;;11.85;5.07;;;;;;;;;;5024976;28;20048;-72
2023/05/19 08:29:06;;;;;;;13.38;4.65;;;;;;;;;;5007063;28;21974;-74
2023/05/19 08:31:34;;;;;;;8.52;3.38;;;;;;;;;;5003991;28;20094;-74
2023/05/19 08:33:59;;;;;;;8.95;3.58;;;;;;;;;;5004051;28;20037;-72
2023/05/19 08:36:27;;;;;;;10.35;3.25;;;;;;;;;;5035355;28;20163;-73
2023/05/19 08:38:52;;;;;;;16.40;3.63;;;;;;;;;;5006071;28;20562;-72
2023/05/19 08:41:18;;;;;;;10.68;3.50;;;;;;;;;;5011204;28;20044;-74
2023/05/19 08:43:45;;;;;;;10.52;3.03;;;;;;;;;;5004436;28;20029;-73
2023/05/19 08:46:12;;;;;;;8.45;2.70;;;;;;;;;;5037451;28;20045;-73
2023/05/19 08:48:43;;;;;;;11.43;3.38;;;;;;;;;;5006085;28;20041;-73
2023/05/19 08:51:16;;;;;;;9.73;3.30;;;;;;;;;;5037550;28;20072;-73
2023/05/19 08:53:44;;;;;;;10.90;3.28;;;;;;;;;;5008314;28;20997;-73
2023/05/19 08:56:23;;;;;;;8.68;3.03;;;;;;;;;;4998523;28;20042;-72
2023/05/19 08:58:48;;;;;;;12.93;3.53;;;;;;;;;;4986273;28;20030;-72
2023/05/19 09:01:17;;;;;;;10.77;3.30;;;;;;;;;;4986298;28;20040;-73
2023/05/19 09:03:43;;;;;;;7.00;2.88;;;;;;;;;;4991269;28;20061;-72
2023/05/19 09:06:12;;;;;;;8.55;2.80;;;;;;;;;;4988266;28;20033;-73
2023/05/19 09:08:38;;;;;;;14.52;2.58;;;;;;;;;;4986351;28;20574;-71
2023/05/19 09:11:03;;;;;;;12.30;3.05;;;;;;;;;;4986209;28;20041;-73
2023/05/19 09:13:28;;;;;;;8.38;2.50;;;;;;;;;;5019432;28;20487;-74
2023/05/19 09:15:55;;;;;;;51.80;7.35;;;;;;;;;;4988347;28;20198;-73
2023/05/19 09:18:22;;;;;;;15.88;3.38;;;;;;;;;;4994964;28;20060;-74
2023/05/19 09:20:48;;;;;;;14.43;2.67;;;;;;;;;;4995628;28;20042;-73
2023/05/19 09:23:16;;;;;;;8.07;2.90;;;;;;;;;;4993305;28;20036;-73
2023/05/19 09:25:48;;;;;;;11.98;2.90;;;;;;;;;;5000337;28;20461;-74
2023/05/19 09:28:14;;;;;;;9.50;2.85;;;;;;;;;;4991997;28;20084;-73
2023/05/19 09:30:39;;;;;;;10.50;3.00;;;;;;;;;;4990808;28;20511;-72
2023/05/19 09:33:08;;;;;;;10.93;3.05;;;;;;;;;;4995173;28;20029;-73
2023/05/19 09:35:34;;;;;;;13.25;2.70;;;;;;;;;;4992036;28;20156;-72
2023/05/19 09:38:02;;;;;;;8.95;2.70;;;;;;;;;;4995122;28;20038;-74
2023/05/19 09:40:27;;;;;;;6.20;2.50;;;;;;;;;;4989575;28;20045;-74
2023/05/19 09:42:53;;;;;;;7.90;2.60;;;;;;;;;;4991886;28;20060;-73
2023/05/19 09:45:18;;;;;;;7.88;2.75;;;;;;;;;;4986392;28;20060;-73
2023/05/19 09:47:46;;;;;;;7.28;1.92;;;;;;;;;;4991219;28;20037;-72
2023/05/19 09:50:12;;;;;;;6.80;2.65;;;;;;;;;;4992665;28;20053;-73
2023/05/19 09:52:39;;;;;;;8.73;2.33;;;;;;;;;;4990893;28;20575;-72
2023/05/19 09:55:07;;;;;;;21.08;3.75;;;;;;;;;;4992794;28;22648;-73
2023/05/19 09:57:35;;;;;;;15.25;3.35;;;;;;;;;;4971704;28;20389;-71
2023/05/19 10:00:07;;;;;;;10.05;2.47;;;;;;;;;;4979373;28;20046;-71
2023/05/19 10:02:42;;;;;;;7.95;2.42;;;;;;;;;;4971230;28;20034;-73
2023/05/19 10:05:11;;;;;;;9.18;2.55;;;;;;;;;;4969580;28;20048;-72
2023/05/19 10:07:37;;;;;;;8.05;2.65;;;;;;;;;;4966424;28;20070;-73
2023/05/19 10:10:03;;;;;;;12.02;2.60;;;;;;;;;;4975359;28;20145;-72
2023/05/19 10:12:29;;;;;;;15.25;3.20;;;;;;;;;;4986659;28;20060;-72
2023/05/19 10:14:55;;;;;;;10.15;2.50;;;;;;;;;;4988745;28;20053;-72
2023/05/19 10:17:21;;;;;;;11.30;3.00;;;;;;;;;;4987241;28;20172;-72
2023/05/19 10:19:46;;;;;;;11.23;2.50;;;;;;;;;;5005353;28;20088;-72
2023/05/19 10:22:12;;;;;;;7.70;2.40;;;;;;;;;;4969728;28;21100;-71
2023/05/19 10:24:37;;;;;;;9.50;2.60;;;;;;;;;;4969889;28;20042;-71
2023/05/19 10:27:05;;;;;;;9.80;3.03;;;;;;;;;;4972860;28;20040;-71
2023/05/19 10:29:32;;;;;;;30.45;4.05;;;;;;;;;;4995703;28;20034;-72
2023/05/19 10:31:59;;;;;;;9.45;2.72;;;;;;;;;;4990826;28;20042;-71
2023/05/19 10:34:31;;;;;;;7.28;2.50;;;;;;;;;;4984549;28;20096;-72
2023/05/19 10:37:11;;;;;;;8.13;2.60;;;;;;;;;;5006156;28;20134;-72
2023/05/19 10:39:40;;;;;;;8.48;2.60;;;;;;;;;;4986292;28;20291;-71
2023/05/19 10:42:12;;;;;;;8.90;3.05;;;;;;;;;;4988538;28;20475;-72
2023/05/19 10:44:44;;;;;;;8.43;2.65;;;;;;;;;;4984936;28;20088;-71
2023/05/19 10:47:10;;;;;;;;;;;;;;;;;;5011527;28;20135;-72
2023/05/19 10:49:36;;;;;;;8.23;3.05;;;;;;;;;;5010425;28;21138;-72
2023/05/19 10:52:20;;;;;;;10.57;3.10;;;;;;;;;;5040809;28;20943;-71
2023/05/19 10:54:48;;;;;;;10.03;3.00;;;;;;;;;;5011206;28;20048;-72
2023/05/19 10:57:17;;;;;;;8.05;2.85;;;;;;;;;;5009536;28;20130;-72
2023/05/19 10:59:44;;;;;;;7.70;3.25;;;;;;;;;;5039100;28;20735;-72
2023/05/19 11:02:32;;;;;;;8.07;3.30;;;;;;;;;;5010626;28;20034;-72
2023/05/19 11:05:06;;;;;;;8.05;2.65;;;;;;;;;;5008756;28;20036;-71
2023/05/19 11:07:34;;;;;;;9.50;3.17;;;;;;;;;;5005063;28;20040;-70
2023/05/19 11:10:03;;;;;;;6.22;2.72;;;;;;;;;;5007234;28;20033;-71
2023/05/19 11:12:38;;;;;;;9.45;3.00;;;;;;;;;;5006701;28;20084;-71
2023/05/19 11:15:03;;;;;;;11.88;3.20;;;;;;;;;;5003159;28;20075;-72
2023/05/19 11:17:29;;;;;;;10.57;3.17;;;;;;;;;;5028699;28;20136;-71
2023/05/19 11:19:55;;;;;;;8.45;3.13;;;;;;;;;;5007153;28;20034;-70
2023/05/19 11:22:24;;;;;;;10.57;3.40;;;;;;;;;;5008456;28;20037;-71
2023/05/19 11:24:52;;;;;;;8.50;3.30;;;;;;;;;;5039092;28;20506;-71
2023/05/19 11:27:17;;;;;;;9.35;3.10;;;;;;;;;;5005633;28;20099;-72
2023/05/19 11:29:47;;;;;;;9.32;3.28;;;;;;;;;;5006894;28;20473;-72
2023/05/19 11:32:12;;;;;;;7.97;3.17;;;;;;;;;;5005739;28;20087;-72
2023/05/19 11:34:38;;;;;;;9.25;3.28;;;;;;;;;;5005292;28;20992;-72
2023/05/19 11:37:05;;;;;;;8.25;2.88;;;;;;;;;;5011665;28;20057;-71
2023/05/19 11:39:33;;;;;;;7.65;3.00;;;;;;;;;;5005993;28;20041;-72
2023/05/19 11:41:58;;;;;;;8.85;3.38;;;;;;;;;;5036473;28;20033;-71
2023/05/19 11:44:24;;;;;;;6.63;3.08;;;;;;;;;;5038634;28;20041;-72
2023/05/19 11:46:49;;;;;;;8.30;3.45;;;;;;;;;;5011724;28;20758;-73
2023/05/19 11:49:17;;;;;;;8.20;3.03;;;;;;;;;;5037257;28;20057;-73
2023/05/19 11:51:42;;;;;;;10.45;3.38;;;;;;;;;;5005470;28;20399;-74
2023/05/19 11:54:09;;;;;;;8.68;3.53;;;;;;;;;;5039341;28;20431;-75
2023/05/19 11:56:41;;;;;;;9.93;3.42;;;;;;;;;;5039669;28;20033;-74
2023/05/19 11:59:06;;;;;;;10.70;2.70;;;;;;;;;;5008137;28;20037;-73
2023/05/19 12:01:32;;;;;;;8.32;3.10;;;;;;;;;;5007855;28;20033;-73
2023/05/19 12:04:00;;;;;;;6.95;2.50;;;;;;;;;;5005985;28;20068;-75
2023/05/19 12:06:26;;;;;;;8.38;2.65;;;;;;;;;;5010220;28;20045;-73
2023/05/19 12:08:53;;;;;;;12.13;2.80;;;;;;;;;;5008523;28;20641;-70
2023/05/19 12:11:22;;;;;;;9.02;2.78;;;;;;;;;;5026679;28;20391;-73
2023/05/19 12:13:49;;;;;;;9.32;2.72;;;;;;;;;;5007512;28;20036;-76
2023/05/19 12:16:18;;;;;;;10.85;3.15;;;;;;;;;;5036643;28;20037;-75
2023/05/19 12:18:46;;;;;;;7.15;2.67;;;;;;;;;;5039138;28;20045;-74
2023/05/19 12:21:16;;;;;;;5.93;2.40;;;;;;;;;;5007675;28;20029;-72
2023/05/19 12:23:42;;;;;;;8.32;2.53;;;;;;;;;;5008930;28;20033;-72
2023/05/19 12:26:07;;;;;;;6.50;2.60;;;;;;;;;;5008834;28;20037;-73
2023/05/19 12:28:35;;;;;;;7.68;2.40;;;;;;;;;;5008811;28;20116;-73
2023/05/19 12:31:01;;;;;;;9.35;2.60;;;;;;;;;;5007464;28;20152;-75
2023/05/19 12:33:26;;;;;;;6.30;2.35;;;;;;;;;;5007904;28;20087;-75
2023/05/19 12:35:52;;;;;;;6.90;2.40;;;;;;;;;;5038895;28;20045;-72
2023/05/19 12:38:21;;;;;;;8.30;2.80;;;;;;;;;;5008579;28;20160;-73
2023/05/19 12:40:46;;;;;;;7.50;2.60;;;;;;;;;;5030219;28;20025;-74
2023/05/19 12:43:18;;;;;;;8.43;2.70;;;;;;;;;;5012589;28;20068;-71
2023/05/19 12:45:44;;;;;;;7.55;2.50;;;;;;;;;;5015612;28;20482;-73
2023/05/19 12:48:15;;;;;;;9.07;2.40;;;;;;;;;;5040430;28;20053;-73
2023/05/19 12:50:40;;;;;;;7.45;2.35;;;;;;;;;;5007133;28;20029;-73
2023/05/19 12:53:13;;;;;;;6.40;2.50;;;;;;;;;;5008160;28;20511;-73
2023/05/19 12:55:40;;;;;;;6.18;2.30;;;;;;;;;;5012234;28;20132;-73
2023/05/19 12:58:08;;;;;;;8.88;2.33;;;;;;;;;;5007773;28;20175;-73
2023/05/19 13:00:39;;;;;;;6.60;2.33;;;;;;;;;;5008306;28;20061;-71
2023/05/19 13:03:05;;;;;;;7.45;2.70;;;;;;;;;;5008181;28;20117;-73
2023/05/19 13:05:35;;;;;;;8.43;2.15;;;;;;;;;;5022937;28;20305;-73
2023/05/19 13:08:03;;;;;;;9.10;2.72;;;;;;;;;;5040148;28;20041;-73
2023/05/19 13:10:30;;;;;;;7.32;2.70;;;;;;;;;;5012805;28;20049;-72
2023/05/19 13:12:55;;;;;;;8.88;3.05;;;;;;;;;;5022559;28;20041;-73
2023/05/19 13:15:21;;;;;;;5.80;2.55;;;;;;;;;;5016001;28;20045;-77
2023/05/19 13:17:47;;;;;;;6.30;2.50;;;;;;;;;;5031206;28;20049;-76
2023/05/19 13:20:12;;;;;;;7.00;2.38;;;;;;;;;;5036666;28;20038;-78
2023/05/19 13:22:37;;;;;;;9.70;2.83;;;;;;;;;;5012817;28;20041;-74
2023/05/19 13:25:03;;;;;;;6.30;2.70;;;;;;;;;;5007647;28;20041;-75
2023/05/19 13:27:28;;;;;;;6.15;2.35;;;;;;;;;;5006687;28;20033;-72
2023/05/19 13:29:53;;;;;;;9.45;2.80;;;;;;;;;;5007452;28;20117;-72
2023/05/19 13:32:19;;;;;;;10.18;3.05;;;;;;;;;;5021365;28;20035;-72
2023/05/19 13:34:46;;;;;;;5.85;2.78;;;;;;;;;;5015831;28;20045;-75
2023/05/19 13:37:14;;;;;;;7.55;2.83;;;;;;;;;;5035060;28;20977;-74
2023/05/19 13:39:40;;;;;;;8.40;3.00;;;;;;;;;;5007958;28;20038;-73
2023/05/19 13:42:07;;;;;;;7.78;3.05;;;;;;;;;;5037372;28;20044;-72
2023/05/19 13:44:35;;;;;;;7.05;3.10;;;;;;;;;;5021463;28;20045;-74
2023/05/19 13:47:03;;;;;;;12.48;3.10;;;;;;;;;;5004829;28;22375;-75
2023/05/19 13:49:28;;;;;;;8.57;2.92;;;;;;;;;;5036603;28;20764;-72
2023/05/19 13:51:57;;;;;;;7.05;2.85;;;;;;;;;;5036283;28;20120;-74
2023/05/19 13:54:22;;;;;;;7.18;3.10;;;;;;;;;;5005064;28;20045;-74
2023/05/19 13:56:48;;;;;;;9.23;3.00;;;;;;;;;;5004335;28;20048;-73
2023/05/19 13:59:14;;;;;;;9.27;3.50;;;;;;;;;;5036524;28;20069;-73
2023/05/19 14:01:39;;;;;;;8.60;3.00;;;;;;;;;;5007494;28;20121;-72
2023/05/19 14:04:05;;;;;;;10.18;3.40;;;;;;;;;;5011195;28;20045;-71
2023/05/19 14:06:30;;;;;;;5.68;2.63;;;;;;;;;;5009669;28;20038;-71
2023/05/19 14:08:57;;;;;;;9.13;2.90;;;;;;;;;;5017049;28;20475;-72
2023/05/19 14:11:23;;;;;;;5.40;2.92;;;;;;;;;;5011235;28;20514;-70
2023/05/19 14:13:51;;;;;;;7.13;3.20;;;;;;;;;;5010235;28;20153;-70
2023/05/19 14:16:16;;;;;;;7.00;3.08;;;;;;;;;;5016313;28;20046;-70
2023/05/19 14:18:42;;;;;;;5.95;2.90;;;;;;;;;;5007889;28;20075;-71
2023/05/19 14:21:07;;;;;;;9.35;3.35;;;;;;;;;;5036222;28;20053;-70
2023/05/19 14:23:32;;;;;;;8.00;2.92;;;;;;;;;;5005045;28;20485;-72
2023/05/19 14:25:58;;;;;;;8.93;2.85;;;;;;;;;;5010819;28;20038;-71
2023/05/19 14:28:25;;;;;;;6.90;2.97;;;;;;;;;;5007258;28;20056;-67
2023/05/19 14:30:51;;;;;;;6.22;3.10;;;;;;;;;;5006493;28;20051;-68